Time;durP1;ratioP1;P1;durP2;ratioP2;P2;SDS_P1;SDS_P2;PMS_P1;PMS_P2;Temp;Humidity;BMP_temperature;BMP_pressure;BME280_temperature;BME280_humidity;BME280_pressure;Samples;Min_cycle;Max_cycle;Signal;HPM_P1;HPM_P2
2022/09/04 00:00:27;;;;;;;11.30;2.40;;;;;;;19.81;nan;101489.00;6131137;23;20409;-90
2022/09/04 00:03:09;;;;;;;6.60;1.90;;;;;;;19.80;nan;101482.59;6105917;23;20496;-90
2022/09/04 00:05:41;;;;;;;16.67;2.50;;;;;;;19.75;nan;101479.69;6245262;23;20461;-90
2022/09/04 00:08:46;;;;;;;15.67;2.87;;;;;;;19.71;nan;101478.47;6220224;23;20897;-90
2022/09/04 00:12:01;;;;;;;7.70;1.53;;;;;;;19.64;nan;101466.59;6220225;23;20478;-90
2022/09/04 00:14:35;;;;;;;17.63;2.63;;;;;;;19.65;nan;101469.16;6106921;23;20421;-91
2022/09/04 00:17:08;;;;;;;9.17;2.23;;;;;;;19.59;nan;101463.72;6123835;23;20405;-90
2022/09/04 00:19:46;;;;;;;21.03;3.00;;;;;;;19.61;nan;101465.19;6101027;23;20490;-89
2022/09/04 00:22:38;;;;;;;15.43;2.50;;;;;;;19.65;nan;101462.75;6100530;23;20585;-90
2022/09/04 00:25:44;;;;;;;11.63;2.20;;;;;;;19.60;nan;101451.53;6079199;23;20984;-89
2022/09/04 00:28:52;;;;;;;11.57;2.67;;;;;;;19.64;nan;101453.59;6098015;23;20492;-91
2022/09/04 00:31:37;;;;;;;11.90;2.23;;;;;;;19.58;nan;101445.38;6075607;23;20416;-90
2022/09/04 00:34:32;;;;;;;10.30;2.10;;;;;;;19.56;nan;101447.53;6077376;23;20490;-90
2022/09/04 00:37:04;;;;;;;11.70;2.23;;;;;;;19.52;nan;101435.22;6100247;23;20825;-90
2022/09/04 00:39:54;;;;;;;6.47;1.87;;;;;;;19.54;nan;101433.06;6100501;23;20497;-89
2022/09/04 00:42:42;;;;;;;11.67;2.20;;;;;;;19.56;nan;101445.63;6077020;23;20916;-90
2022/09/04 00:45:33;;;;;;;17.20;2.80;;;;;;;19.57;nan;101444.53;6075708;23;20402;-90
2022/09/04 00:48:48;;;;;;;10.63;2.30;;;;;;;19.61;nan;101453.25;6008463;23;20425;-90
2022/09/04 00:51:42;;;;;;;13.13;1.90;;;;;;;19.62;nan;101458.56;6006713;23;21005;-90
2022/09/04 00:54:27;;;;;;;12.23;2.20;;;;;;;19.63;nan;101451.03;6049687;23;20415;-90
2022/09/04 00:56:54;;;;;;;11.57;2.20;;;;;;;19.67;nan;101455.03;6094614;23;20407;-90
2022/09/04 00:59:47;;;;;;;12.03;2.57;;;;;;;19.66;nan;101437.56;6008675;23;20431;-89
2022/09/04 01:03:11;;;;;;;14.27;2.60;;;;;;;19.66;nan;101428.38;6008160;23;20421;-90
2022/09/04 01:05:57;;;;;;;7.80;1.97;;;;;;;19.64;nan;101431.41;5924719;24;20413;-90
2022/09/04 01:09:25;;;;;;;14.67;2.73;;;;;;;19.61;nan;101433.81;5902677;24;20501;-89
2022/09/04 01:12:00;;;;;;;13.90;3.00;;;;;;;19.59;nan;101438.75;5925161;24;20717;-90
2022/09/04 01:14:54;;;;;;;8.80;2.03;;;;;;;19.60;nan;101457.09;5902717;24;20416;-89
2022/09/04 01:17:31;;;;;;;15.53;2.67;;;;;;;19.60;nan;101454.31;5959544;23;20416;-90
2022/09/04 01:20:20;;;;;;;10.30;2.40;;;;;;;19.61;nan;101456.84;6008606;23;20516;-89
2022/09/04 01:23:17;;;;;;;11.93;2.33;;;;;;;19.60;nan;101451.53;6008807;23;20778;-90
2022/09/04 01:26:10;;;;;;;15.50;2.43;;;;;;;19.56;nan;101447.53;6090862;23;20496;-90
2022/09/04 01:29:12;;;;;;;20.50;2.80;;;;;;;19.56;nan;101448.38;6084074;23;20397;-90
2022/09/04 01:32:04;;;;;;;7.97;2.07;;;;;;;19.46;nan;101452.75;6128679;23;20432;-89
2022/09/04 01:34:58;;;;;;;12.47;2.60;;;;;;;19.36;nan;101458.03;6129297;23;20469;-90
2022/09/04 01:37:59;;;;;;;9.43;2.07;;;;;;;19.28;nan;101454.50;6244548;23;20407;-90
2022/09/04 01:40:50;;;;;;;10.27;2.13;;;;;;;19.23;nan;101459.06;6222896;23;20410;-90
2022/09/04 01:43:20;;;;;;;11.97;2.60;;;;;;;19.20;nan;101454.00;6223531;23;20485;-91
2022/09/04 01:46:18;;;;;;;8.20;1.73;;;;;;;19.15;nan;101454.69;6229283;22;20433;-90
2022/09/04 01:49:01;;;;;;;22.47;2.53;;;;;;;19.12;nan;101452.38;6251706;22;20489;-90
2022/09/04 01:51:39;;;;;;;4.90;1.73;;;;;;;19.02;nan;101441.00;6252201;22;20402;-90
2022/09/04 01:54:23;;;;;;;17.83;3.20;;;;;;;18.92;nan;101424.06;6228196;22;20433;-90
2022/09/04 01:57:10;;;;;;;7.50;2.30;;;;;;;18.87;nan;101422.00;6204338;22;20409;-90
2022/09/04 01:59:43;;;;;;;12.90;2.37;;;;;;;18.82;nan;101423.78;6251880;22;20480;-90
2022/09/04 02:02:24;;;;;;;8.77;2.13;;;;;;;18.75;nan;101423.88;6278309;22;20410;-90
2022/09/04 02:05:09;;;;;;;6.70;2.13;;;;;;;18.67;nan;101426.06;6227349;22;20909;-90
2022/09/04 02:08:05;;;;;;;11.00;2.27;;;;;;;18.60;nan;101418.72;6253520;22;20891;-90
2022/09/04 02:10:46;;;;;;;11.87;2.20;;;;;;;18.53;nan;101420.66;6205683;22;20405;-90
2022/09/04 02:13:52;;;;;;;6.70;1.90;;;;;;;18.45;nan;101420.13;6251702;22;20943;-90
2022/09/04 02:16:41;;;;;;;12.07;1.80;;;;;;;18.44;nan;101430.38;6206297;22;20904;-89
2022/09/04 02:19:40;;;;;;;9.67;2.97;;;;;;;18.38;nan;101428.50;6251703;22;20900;-90
2022/09/04 02:22:28;;;;;;;10.83;2.17;;;;;;;18.31;nan;101433.25;6251799;22;20401;-90
2022/09/04 02:25:13;;;;;;;9.03;1.60;;;;;;;18.28;nan;101426.25;6252416;22;20387;-89
2022/09/04 02:28:10;;;;;;;10.10;1.83;;;;;;;18.24;nan;101426.94;6226718;22;20428;-89
2022/09/04 02:31:02;;;;;;;11.47;2.13;;;;;;;18.19;nan;101424.00;6251031;22;20390;-90
2022/09/04 02:34:12;;;;;;;6.47;1.90;;;;;;;18.11;nan;101425.13;6252200;22;20438;-91
2022/09/04 02:36:55;;;;;;;8.73;1.90;;;;;;;18.08;nan;101419.22;6250710;22;20416;-90
2022/09/04 02:39:26;;;;;;;11.90;2.27;;;;;;;18.09;nan;101423.69;6228581;22;20724;-90
2022/09/04 02:42:12;;;;;;;7.70;2.53;;;;;;;18.06;nan;101419.47;6251927;22;20979;-90
2022/09/04 02:44:58;;;;;;;15.20;2.30;;;;;;;18.02;nan;101417.38;6251933;22;20469;-89
2022/09/04 02:47:46;;;;;;;6.77;2.00;;;;;;;18.00;nan;101423.13;6251521;22;20982;-90
2022/09/04 02:50:50;;;;;;;8.23;1.90;;;;;;;17.93;nan;101417.63;6229898;22;20406;-89
2022/09/04 02:54:00;;;;;;;13.43;2.00;;;;;;;17.89;nan;101419.19;6180969;22;20765;-89
2022/09/04 02:57:01;;;;;;;4.83;1.60;;;;;;;17.84;nan;101424.53;6100497;23;20735;-89
2022/09/04 02:59:54;;;;;;;15.43;2.70;;;;;;;17.80;nan;101426.06;6124712;23;20995;-88
2022/09/04 03:02:23;;;;;;;10.90;2.17;;;;;;;17.75;nan;101414.81;6077105;23;20410;-90
2022/09/04 03:05:21;;;;;;;15.67;2.07;;;;;;;17.69;nan;101423.19;6076873;23;20402;-90
2022/09/04 03:08:06;;;;;;;9.37;2.23;;;;;;;17.58;nan;101414.47;6081412;23;20494;-89
2022/09/04 03:10:38;;;;;;;7.97;3.07;;;;;;;17.53;nan;101417.06;6077903;23;21041;-90
2022/09/04 03:13:41;;;;;;;16.93;1.87;;;;;;;17.54;nan;101423.44;6077465;23;20537;-89
2022/09/04 03:16:15;;;;;;;11.73;2.20;;;;;;;17.49;nan;101424.13;6125285;23;20481;-89
2022/09/04 03:19:10;;;;;;;9.53;1.90;;;;;;;17.47;nan;101430.94;6076468;23;20798;-90
2022/09/04 03:21:50;;;;;;;10.50;2.53;;;;;;;17.43;nan;101429.69;6101838;23;20531;-90
2022/09/04 03:25:01;;;;;;;11.43;2.50;;;;;;;17.45;nan;101430.31;6078391;23;20394;-90
2022/09/04 03:27:31;;;;;;;13.03;2.40;;;;;;;17.45;nan;101422.03;6191376;22;20714;-90
2022/09/04 03:30:09;;;;;;;7.63;1.80;;;;;;;17.41;nan;101415.25;6250274;22;20405;-90
2022/09/04 03:32:58;;;;;;;11.27;2.80;;;;;;;17.43;nan;101421.41;6225761;22;20440;-90
2022/09/04 03:35:28;;;;;;;8.33;2.03;;;;;;;17.42;nan;101431.59;6250375;22;20908;-89
2022/09/04 03:38:19;;;;;;;6.63;1.60;;;;;;;17.42;nan;101422.47;6251064;22;20433;-89
2022/09/04 03:40:50;;;;;;;9.97;1.83;;;;;;;17.42;nan;101422.47;6236241;22;20533;-90
2022/09/04 03:43:43;;;;;;;9.60;2.20;;;;;;;17.41;nan;101415.25;6251045;22;20417;-89
2022/09/04 03:46:26;;;;;;;10.03;2.00;;;;;;;17.43;nan;101429.69;6228832;22;20441;-89
2022/09/04 03:49:05;;;;;;;8.60;1.77;;;;;;;17.41;nan;101423.53;6250248;22;20412;-90
2022/09/04 03:51:45;;;;;;;14.17;2.37;;;;;;;17.42;nan;101433.53;6250885;22;20406;-90
2022/09/04 03:54:27;;;;;;;11.60;2.17;;;;;;;17.38;nan;101426.75;6250164;22;20441;-89
2022/09/04 03:57:19;;;;;;;14.10;2.77;;;;;;;17.40;nan;101430.13;6225824;22;20410;-90
2022/09/04 03:59:50;;;;;;;9.80;2.27;;;;;;;17.40;nan;101428.22;6250306;22;20413;-90
2022/09/04 04:02:25;;;;;;;10.37;2.10;;;;;;;17.39;nan;101434.81;6250075;22;20397;-89
2022/09/04 04:05:51;;;;;;;9.50;2.27;;;;;;;17.39;nan;101436.72;6250927;22;20547;-88
2022/09/04 04:08:44;;;;;;;14.53;2.27;;;;;;;17.38;nan;101432.25;6129739;23;20409;-89
2022/09/04 04:11:15;;;;;;;11.47;1.77;;;;;;;17.35;nan;101430.78;6129875;23;20765;-90
2022/09/04 04:14:03;;;;;;;11.20;2.23;;;;;;;17.32;nan;101430.41;6153492;23;20449;-89
2022/09/04 04:16:40;;;;;;;9.07;3.10;;;;;;;17.32;nan;101433.19;6105213;23;20408;-90
2022/09/04 04:19:17;;;;;;;10.50;2.50;;;;;;;17.30;nan;101435.31;6129900;23;20393;-90
2022/09/04 04:22:02;;;;;;;8.43;2.57;;;;;;;17.27;nan;101436.59;6129611;23;20412;-89
2022/09/04 04:24:47;;;;;;;6.97;2.00;;;;;;;17.26;nan;101438.50;6129720;23;20421;-89
2022/09/04 04:27:46;;;;;;;10.50;2.07;;;;;;;17.26;nan;101435.75;6129748;23;20417;-89
2022/09/04 04:30:15;;;;;;;14.63;1.90;;;;;;;17.23;nan;101432.56;6129025;23;20480;-90
2022/09/04 04:32:55;;;;;;;7.17;1.77;;;;;;;17.27;nan;101439.34;6105237;23;20421;-90
2022/09/04 04:35:48;;;;;;;9.00;1.93;;;;;;;17.23;nan;101427.91;6129142;23;20409;-89
2022/09/04 04:38:31;;;;;;;13.87;2.67;;;;;;;17.28;nan;101441.06;6133261;23;20405;-90
2022/09/04 04:41:16;;;;;;;8.43;2.00;;;;;;;17.27;nan;101442.97;6129462;23;20416;-89
2022/09/04 04:44:04;;;;;;;5.20;1.97;;;;;;;17.26;nan;101437.66;6277214;22;20547;-89
2022/09/04 04:46:56;;;;;;;9.40;1.97;;;;;;;17.22;nan;101439.16;6211939;23;20928;-90
2022/09/04 04:49:37;;;;;;;10.80;2.23;;;;;;;17.19;nan;101440.44;6246524;23;20490;-89
2022/09/04 04:52:17;;;;;;;12.53;1.97;;;;;;;17.17;nan;101439.81;6219596;23;20414;-89
2022/09/04 04:55:05;;;;;;;3.83;1.50;;;;;;;17.13;nan;101434.94;6245939;23;20573;-89
2022/09/04 04:58:02;;;;;;;6.40;1.70;;;;;;;17.14;nan;101445.78;6244759;23;20395;-89
2022/09/04 05:00:51;;;;;;;11.87;2.70;;;;;;;17.10;nan;101447.31;6219731;23;20403;-89
2022/09/04 05:04:02;;;;;;;4.10;1.80;;;;;;;17.06;nan;101443.28;6219604;23;20407;-89
2022/09/04 05:06:50;;;;;;;6.43;1.83;;;;;;;17.07;nan;101456.03;6229022;23;20405;-90
2022/09/04 05:09:36;;;;;;;10.10;2.47;;;;;;;17.09;nan;101453.91;6219230;23;20403;-89
2022/09/04 05:12:24;;;;;;;9.57;2.60;;;;;;;17.07;nan;101464.31;6195550;23;20695;-89
2022/09/04 05:14:55;;;;;;;13.40;2.30;;;;;;;17.08;nan;101460.50;6218811;23;20442;-89
2022/09/04 05:17:37;;;;;;;6.87;2.00;;;;;;;17.05;nan;101457.31;6219345;23;20406;-89
2022/09/04 05:20:17;;;;;;;8.10;1.90;;;;;;;17.01;nan;101465.19;6194345;23;20410;-89
2022/09/04 05:22:55;;;;;;;7.60;2.07;;;;;;;17.01;nan;101469.84;6218865;23;20409;-90
2022/09/04 05:25:48;;;;;;;13.10;2.90;;;;;;;17.00;nan;101474.53;6219681;23;20407;-90
2022/09/04 05:29:14;;;;;;;8.47;2.30;;;;;;;16.97;nan;101466.69;6219157;23;20429;-89
2022/09/04 05:32:32;;;;;;;10.10;1.97;;;;;;;16.97;nan;101472.19;6219131;23;20402;-89
2022/09/04 05:35:07;;;;;;;9.33;2.10;;;;;;;16.98;nan;101471.13;6207590;23;20439;-89
2022/09/04 05:38:03;;;;;;;19.33;2.50;;;;;;;16.98;nan;101464.75;6245692;23;20426;-89
2022/09/04 05:40:56;;;;;;;8.20;2.57;;;;;;;16.96;nan;101470.50;6219112;23;20407;-89
2022/09/04 05:43:55;;;;;;;15.50;2.20;;;;;;;16.93;nan;101471.78;6219539;23;20418;-89
2022/09/04 05:46:32;;;;;;;10.17;2.50;;;;;;;16.91;nan;101481.38;6252645;22;20430;-89
2022/09/04 05:49:35;;;;;;;6.03;2.17;;;;;;;16.88;nan;101488.19;6249660;22;20480;-89
2022/09/04 05:52:27;;;;;;;8.23;2.10;;;;;;;16.85;nan;101494.13;6276363;22;20413;-89
2022/09/04 05:55:20;;;;;;;14.90;2.40;;;;;;;16.82;nan;101493.72;6276189;22;20485;-89
2022/09/04 05:58:25;;;;;;;8.57;1.70;;;;;;;16.81;nan;101492.88;6275974;22;20405;-89
2022/09/04 06:00:58;;;;;;;12.83;2.90;;;;;;;16.81;nan;101500.28;6249856;22;20408;-89
2022/09/04 06:03:53;;;;;;;9.93;2.23;;;;;;;16.82;nan;101504.75;6249325;22;20437;-89
2022/09/04 06:06:45;;;;;;;11.67;3.10;;;;;;;16.80;nan;101506.88;6224280;22;20723;-89
2022/09/04 06:09:27;;;;;;;8.40;2.00;;;;;;;16.77;nan;101505.41;6249643;22;20406;-89
2022/09/04 06:11:59;;;;;;;10.97;2.00;;;;;;;16.74;nan;101508.59;6224606;22;20480;-88
2022/09/04 06:14:39;;;;;;;11.00;2.77;;;;;;;16.74;nan;101514.09;6224693;22;20468;-89
2022/09/04 06:17:39;;;;;;;9.27;2.30;;;;;;;16.72;nan;101512.66;6249903;22;20406;-89
2022/09/04 06:20:36;;;;;;;5.30;1.80;;;;;;;16.65;nan;101515.41;6260841;22;20401;-91
2022/09/04 06:23:29;;;;;;;15.60;2.30;;;;;;;16.62;nan;101521.31;6239546;22;20412;-89
2022/09/04 06:26:19;;;;;;;10.27;2.80;;;;;;;16.63;nan;101533.22;6249610;22;20402;-89
2022/09/04 06:29:17;;;;;;;17.60;2.77;;;;;;;16.57;nan;101530.25;6227423;22;20406;-94
2022/09/04 06:35:17;;;;;;;13.83;3.03;;;;;;;16.59;nan;101539.16;6279647;22;20402;-92
2022/09/04 06:37:53;;;;;;;11.90;2.30;;;;;;;16.61;nan;101544.47;6253166;22;20394;-92
2022/09/04 06:40:49;;;;;;;19.33;2.80;;;;;;;16.63;nan;101547.00;6251664;22;20398;-93
2022/09/04 06:43:24;;;;;;;15.53;2.33;;;;;;;16.61;nan;101529.81;6237241;22;20912;-93
2022/09/04 06:46:14;;;;;;;14.13;2.00;;;;;;;16.67;nan;101546.41;6229250;22;20504;-94
2022/09/04 06:49:20;;;;;;;15.77;2.47;;;;;;;16.67;nan;101556.59;6252483;22;20413;-94
2022/09/04 06:52:11;;;;;;;12.23;2.60;;;;;;;16.69;nan;101557.25;6252455;22;20879;-92
2022/09/04 06:58:37;;;;;;;16.93;2.10;;;;;;;16.82;nan;101559.97;6278139;22;20421;-94
2022/09/04 07:01:45;;;;;;;12.67;3.23;;;;;;;16.88;nan;101557.22;6252203;22;20398;-92
2022/09/04 07:08:16;;;;;;;15.50;2.63;;;;;;;17.08;nan;101570.97;6279276;22;20465;-94
2022/09/04 07:11:23;;;;;;;14.90;2.63;;;;;;;17.16;nan;101562.44;6252696;22;20721;-94
2022/09/04 07:14:23;;;;;;;12.93;2.33;;;;;;;17.26;nan;101565.59;6252740;22;20875;-94
2022/09/04 07:17:23;;;;;;;8.70;2.40;;;;;;;17.37;nan;101563.22;6228770;22;20411;-95
2022/09/04 07:20:21;;;;;;;11.07;2.37;;;;;;;17.47;nan;101566.38;6226979;22;20421;-93
2022/09/04 07:23:48;;;;;;;8.43;2.33;;;;;;;17.50;nan;101552.13;6251317;22;20463;-93
2022/09/04 07:30:24;;;;;;;;;;;;;;;;;;;;;
2022/09/04 07:33:52;;;;;;;9.27;2.47;;;;;;;17.99;nan;101573.56;6147078;23;20480;-94
2022/09/04 07:37:03;;;;;;;15.00;2.80;;;;;;;18.18;nan;101577.28;6155530;23;20811;-93
2022/09/04 07:39:47;;;;;;;13.80;3.00;;;;;;;18.34;nan;101587.78;6154639;23;20409;-93
2022/09/04 07:42:39;;;;;;;8.83;2.03;;;;;;;18.47;nan;101587.69;6105901;23;20409;-93
2022/09/04 07:45:21;;;;;;;8.80;2.27;;;;;;;18.61;nan;101589.31;6155345;23;20540;-95
2022/09/04 07:48:24;;;;;;;15.03;2.80;;;;;;;18.77;nan;101592.59;6132129;23;21000;-95
2022/09/04 07:51:24;;;;;;;12.50;2.20;;;;;;;18.93;nan;101592.00;6155103;23;20417;-94
2022/09/04 07:53:58;;;;;;;14.40;2.10;;;;;;;19.06;nan;101597.38;6131177;23;20447;-92
2022/09/04 07:57:20;;;;;;;11.47;2.93;;;;;;;19.21;nan;101591.50;6155208;23;20518;-93
2022/09/04 08:00:12;;;;;;;14.70;2.00;;;;;;;19.38;nan;101594.50;6038965;23;20496;-92
2022/09/04 08:03:16;;;;;;;9.70;2.50;;;;;;;19.50;nan;101596.28;6092016;23;20413;-93
2022/09/04 08:09:33;;;;;;;4.67;1.90;;;;;;;19.78;nan;101604.06;6155511;23;20529;-93
2022/09/04 08:12:25;;;;;;;10.10;2.00;;;;;;;19.89;nan;101603.25;6131811;23;20488;-94
2022/09/04 08:19:05;;;;;;;11.20;2.33;;;;;;;20.10;nan;101601.88;6155738;23;20377;-95
2022/09/04 08:21:36;;;;;;;6.90;2.47;;;;;;;20.15;nan;101604.81;6134797;23;20413;-93
2022/09/04 08:24:41;;;;;;;7.37;1.90;;;;;;;20.27;nan;101610.38;6106907;23;20449;-93
2022/09/04 08:27:14;;;;;;;6.30;1.70;;;;;;;20.35;nan;101604.50;6155012;23;20966;-94
2022/09/04 08:30:06;;;;;;;7.20;2.60;;;;;;;20.49;nan;101607.94;6155209;23;20466;-93
2022/09/04 08:36:29;;;;;;;7.40;1.90;;;;;;;20.60;nan;101616.28;6278180;22;20368;-93
2022/09/04 08:39:07;;;;;;;9.77;2.00;;;;;;;20.69;nan;101620.41;6226993;22;20469;-93
2022/09/04 08:42:24;;;;;;;9.37;1.90;;;;;;;20.77;nan;101626.72;6226655;22;20390;-94
2022/09/04 08:45:29;;;;;;;7.53;1.80;;;;;;;20.88;nan;101635.06;6251232;22;20449;-94
2022/09/04 08:48:58;;;;;;;7.20;1.20;;;;;;;21.01;nan;101639.53;6251253;22;20914;-93
2022/09/04 08:58:32;;;;;;;4.83;1.70;;;;;;;21.40;nan;101649.09;6277818;22;20745;-92
2022/09/04 09:01:30;;;;;;;10.07;1.53;;;;;;;21.52;nan;101652.72;6252142;22;20938;-94
2022/09/04 17:35:10;;;;;;;2.40;0.50;;;;;;;;;;6307644;22;20707;-91
2022/09/04 17:38:02;;;;;;;1.90;0.80;;;;;;;;;;6286130;22;20399;-92
2022/09/04 17:41:19;;;;;;;3.53;0.97;;;;;;;;;;6264679;22;20393;-92
2022/09/04 17:52:59;;;;;;;1.97;0.73;;;;;;;;;;6307407;22;20416;-92
2022/09/04 17:55:36;;;;;;;2.07;0.57;;;;;;;;;;6255657;22;20446;-93
2022/09/04 17:58:34;;;;;;;1.80;0.60;;;;;;;;;;6283043;22;20410;-93
2022/09/04 18:08:19;;;;;;;3.00;1.00;;;;;;;;;;6308105;22;20399;-93
2022/09/04 18:14:19;;;;;;;2.77;1.00;;;;;;;;;;6308162;22;20371;-92
2022/09/04 18:19:51;;;;;;;3.10;0.90;;;;;;;;;;6308057;22;20381;-92
2022/09/04 18:31:48;;;;;;;3.20;1.00;;;;;;;;;;6310295;22;20396;-91
2022/09/04 18:34:48;;;;;;;6.47;1.13;;;;;;;;;;6287435;22;20403;-92
2022/09/04 18:37:48;;;;;;;2.33;0.70;;;;;;;;;;6265755;22;20424;-93
2022/09/04 18:40:34;;;;;;;14.87;1.10;;;;;;;;;;6283577;22;20385;-92
2022/09/04 18:47:00;;;;;;;2.13;0.90;;;;;;;;;;6309265;22;20443;-93
2022/09/04 18:50:05;;;;;;;3.17;0.87;;;;;;;;;;6287577;22;20423;-91
2022/09/04 18:56:06;;;;;;;3.57;0.83;;;;;;;;;;6310400;22;20381;-92
2022/09/04 18:58:57;;;;;;;2.53;0.97;;;;;;;;;;6263072;22;20500;-94
2022/09/04 19:05:07;;;;;;;2.50;0.97;;;;;;;;;;6309543;22;20454;-91
2022/09/04 19:07:56;;;;;;;4.27;1.03;;;;;;;;;;6257765;22;20412;-91
2022/09/04 19:11:03;;;;;;;2.77;0.80;;;;;;;;;;6280419;22;20405;-92
2022/09/04 19:14:23;;;;;;;3.93;1.00;;;;;;;;;;6193435;23;20886;-90
2022/09/04 19:20:18;;;;;;;2.60;1.23;;;;;;;;;;6126071;23;20493;-91
2022/09/04 19:26:49;;;;;;;2.37;0.83;;;;;;;;;;6125951;23;20484;-91
2022/09/04 19:29:17;;;;;;;5.33;1.17;;;;;;;;;;6066941;23;20421;-92
2022/09/04 19:38:10;;;;;;;3.20;0.70;;;;;;;;;;6067164;23;20435;-92
2022/09/04 19:41:25;;;;;;;2.93;1.10;;;;;;;;;;6068050;23;20401;-94
2022/09/04 19:44:22;;;;;;;2.00;0.73;;;;;;;;;;6067637;23;20471;-93
2022/09/04 19:47:21;;;;;;;2.37;0.90;;;;;;;;;;6049190;23;20400;-92
2022/09/04 19:53:33;;;;;;;3.63;0.90;;;;;;;;;;6126364;23;20378;-93
2022/09/04 19:56:26;;;;;;;4.67;0.80;;;;;;;;;;6083670;23;20478;-95
2022/09/04 19:59:11;;;;;;;5.87;1.47;;;;;;;;;;6077758;23;20449;-90
2022/09/04 20:01:50;;;;;;;4.00;0.90;;;;;;;;;;6101582;23;20403;-92
2022/09/04 20:04:49;;;;;;;2.03;0.77;;;;;;;;;;6247712;22;20755;-91
2022/09/04 20:07:45;;;;;;;4.53;0.93;;;;;;;;;;6250379;22;20405;-89
2022/09/04 20:10:34;;;;;;;1.63;0.70;;;;;;;;;;6122790;23;20924;-88
2022/09/04 20:13:07;;;;;;;2.60;0.80;;;;;;;;;;6074618;23;20422;-88
2022/09/04 20:15:35;;;;;;;2.10;0.73;;;;;;;;;;6099281;23;20406;-89
2022/09/04 20:18:08;;;;;;;4.07;0.90;;;;;;;;;;6099125;23;20407;-89
2022/09/04 20:20:37;;;;;;;2.07;0.90;;;;;;;;;;6123374;23;20403;-89
2022/09/04 20:23:14;;;;;;;4.07;1.03;;;;;;;;;;6123012;23;20410;-89
2022/09/04 20:26:19;;;;;;;4.03;1.47;;;;;;;;;;6103135;23;20530;-89
2022/09/04 20:28:53;;;;;;;3.27;0.87;;;;;;;;;;6122839;23;20410;-89
2022/09/04 20:31:23;;;;;;;5.43;0.90;;;;;;;;;;6124374;23;20437;-89
2022/09/04 20:34:08;;;;;;;3.83;1.00;;;;;;;;;;6130569;23;20432;-90
2022/09/04 20:36:37;;;;;;;4.07;1.13;;;;;;;;;;6152973;23;20398;-89
2022/09/04 20:39:20;;;;;;;2.20;0.80;;;;;;;;;;6127243;23;20433;-89
2022/09/04 20:41:48;;;;;;;2.33;0.90;;;;;;;;;;6127591;23;20405;-88
2022/09/04 20:44:36;;;;;;;4.60;0.93;;;;;;;;;;6127946;23;20402;-90
2022/09/04 20:47:26;;;;;;;4.43;1.40;;;;;;;;;;6228193;22;20404;-91
2022/09/04 20:50:19;;;;;;;2.90;1.10;;;;;;;;;;6283342;22;20489;-88
2022/09/04 20:53:12;;;;;;;4.80;1.10;;;;;;;;;;6283945;22;20394;-89
2022/09/04 20:55:46;;;;;;;4.30;0.90;;;;;;;;;;6257996;22;20439;-90
2022/09/04 20:58:26;;;;;;;7.87;0.90;;;;;;;;;;6279564;22;20404;-89
2022/09/04 21:01:14;;;;;;;5.23;1.17;;;;;;;;;;6284062;22;20397;-90
2022/09/04 21:04:17;;;;;;;5.30;1.07;;;;;;;;;;6263675;22;20393;-89
2022/09/04 21:07:41;;;;;;;6.10;1.13;;;;;;;;;;6265814;22;20466;-91
2022/09/04 21:10:24;;;;;;;3.90;1.20;;;;;;;;;;6072501;23;20399;-90
2022/09/04 21:13:12;;;;;;;8.87;2.47;;;;;;;;;;6071756;23;20530;-92
2022/09/04 21:15:43;;;;;;;5.40;1.30;;;;;;;;;;6072213;23;20400;-90
2022/09/04 21:18:37;;;;;;;4.57;1.20;;;;;;;;;;6096738;23;20411;-90
2022/09/04 21:21:11;;;;;;;7.50;1.30;;;;;;;;;;6095466;23;20415;-91
2022/09/04 21:23:57;;;;;;;14.73;2.10;;;;;;;;;;6072099;23;20394;-91
2022/09/04 21:26:48;;;;;;;12.47;1.47;;;;;;;;;;6073585;23;20451;-90
2022/09/04 21:29:31;;;;;;;3.67;1.20;;;;;;;;;;6200204;23;20410;-90
2022/09/04 21:32:02;;;;;;;4.23;0.97;;;;;;;;;;6189152;23;20444;-90
2022/09/04 21:34:34;;;;;;;13.73;1.10;;;;;;;;;;6189909;23;20388;-91
2022/09/04 21:40:49;;;;;;;5.30;1.20;;;;;;;;;;6214726;23;20442;-90
2022/09/04 21:43:23;;;;;;;7.87;1.33;;;;;;;;;;6190072;23;20407;-91
2022/09/04 21:49:16;;;;;;;10.10;1.37;;;;;;;;;;6308952;22;20923;-90
2022/09/04 21:52:11;;;;;;;5.50;1.50;;;;;;;;;;6282507;22;20470;-89
2022/09/04 21:54:50;;;;;;;6.90;1.57;;;;;;;;;;6280224;22;20834;-90
2022/09/04 21:57:42;;;;;;;4.90;1.70;;;;;;;;;;6264013;22;20397;-90
2022/09/04 22:00:32;;;;;;;7.23;1.47;;;;;;;;;;6285480;22;20750;-90
2022/09/04 22:03:24;;;;;;;4.47;2.00;;;;;;;;;;6265770;22;20936;-90
2022/09/04 22:06:14;;;;;;;6.00;1.70;;;;;;;;;;6259096;22;20451;-89
2022/09/04 22:09:19;;;;;;;8.63;2.00;;;;;;;;;;6309941;22;20479;-91
2022/09/04 22:12:13;;;;;;;6.47;1.80;;;;;;;;;;6287190;22;20777;-90
2022/09/04 22:15:08;;;;;;;7.77;3.00;;;;;;;;;;6266392;22;20454;-90
2022/09/04 22:17:52;;;;;;;7.73;2.03;;;;;;;;;;6281890;22;20423;-91
2022/09/04 22:20:23;;;;;;;6.57;1.53;;;;;;;;;;6257282;22;20405;-89
2022/09/04 22:23:05;;;;;;;9.13;1.57;;;;;;;;;;6309497;22;20381;-89
2022/09/04 22:25:43;;;;;;;4.90;1.20;;;;;;;;;;6282513;22;20482;-89
2022/09/04 22:28:13;;;;;;;6.40;1.70;;;;;;;;;;6281967;22;20424;-90
2022/09/04 22:30:47;;;;;;;12.73;1.77;;;;;;;;;;6282743;22;20429;-89
2022/09/04 22:33:34;;;;;;;4.30;1.90;;;;;;;;;;6257327;22;20735;-89
2022/09/04 22:36:40;;;;;;;8.17;1.80;;;;;;;;;;6308866;22;20401;-89
2022/09/04 22:39:16;;;;;;;11.60;1.77;;;;;;;;;;6282067;22;20404;-90
2022/09/04 22:41:50;;;;;;;13.43;2.10;;;;;;;;;;6282417;22;20491;-89
2022/09/04 22:44:37;;;;;;;7.30;2.10;;;;;;;;;;6282342;22;20391;-89
2022/09/04 22:47:27;;;;;;;4.30;1.67;;;;;;;;;;6281958;22;20744;-89
2022/09/04 22:50:17;;;;;;;25.23;2.57;;;;;;;;;;6308543;22;20719;-89
2022/09/04 22:52:44;;;;;;;8.50;1.93;;;;;;;;;;6308879;22;20458;-91
2022/09/04 22:55:16;;;;;;;4.97;1.70;;;;;;;;;;6282494;22;20399;-90
2022/09/04 22:58:16;;;;;;;13.43;1.23;;;;;;;;;;6309194;22;20428;-89
2022/09/04 23:01:05;;;;;;;5.17;1.40;;;;;;;;;;6282902;22;20404;-89
2022/09/04 23:03:41;;;;;;;7.20;1.27;;;;;;;;;;6266645;22;20405;-90
2022/09/04 23:06:21;;;;;;;6.60;1.47;;;;;;;;;;6281092;22;20428;-90
2022/09/04 23:09:17;;;;;;;4.77;1.50;;;;;;;;;;6286071;22;20392;-90
2022/09/04 23:12:05;;;;;;;5.57;1.13;;;;;;;;;;6286611;22;20770;-89
2022/09/04 23:15:04;;;;;;;4.80;1.10;;;;;;;;;;6286655;22;20404;-90
2022/09/04 23:17:39;;;;;;;10.83;1.73;;;;;;;;;;6283423;22;20472;-89
2022/09/04 23:20:38;;;;;;;7.73;1.60;;;;;;;;;;6286551;22;20773;-89
2022/09/04 23:23:44;;;;;;;3.70;1.13;;;;;;;;;;6285955;22;20421;-89
2022/09/04 23:26:38;;;;;;;7.73;1.40;;;;;;;;;;6286370;22;20506;-89
2022/09/04 23:29:31;;;;;;;3.40;1.00;;;;;;;;;;6285724;22;20405;-90
2022/09/04 23:32:21;;;;;;;12.90;1.33;;;;;;;;;;6284539;22;20728;-90
2022/09/04 23:35:26;;;;;;;7.53;1.27;;;;;;;;;;6270055;22;20429;-91
2022/09/04 23:38:11;;;;;;;9.93;1.40;;;;;;;;;;6189578;23;20618;-90
2022/09/04 23:40:45;;;;;;;8.50;1.77;;;;;;;;;;6189487;23;20404;-90
2022/09/04 23:43:22;;;;;;;7.30;1.40;;;;;;;;;;6165510;23;20406;-90
2022/09/04 23:46:07;;;;;;;8.37;1.67;;;;;;;;;;6177600;23;20929;-90
2022/09/04 23:48:41;;;;;;;10.13;1.33;;;;;;;;;;6189735;23;20391;-89
2022/09/04 23:51:23;;;;;;;11.50;1.40;;;;;;;;;;6189617;23;20415;-90
2022/09/04 23:53:58;;;;;;;13.10;1.57;;;;;;;;;;6184067;23;20401;-91
2022/09/04 23:56:40;;;;;;;9.30;2.00;;;;;;;;;;6188809;23;20392;-89
